Time;durP1;ratioP1;P1;durP2;ratioP2;P2;SDS_P1;SDS_P2;PMS_P1;PMS_P2;Temp;Humidity;BMP_temperature;BMP_pressure;BME280_temperature;BME280_humidity;BME280_pressure;Samples;Min_cycle;Max_cycle;Signal;HPM_P1;HPM_P2
2023/04/09 00:02:00;;;;;;;38.05;23.63;;;;;;;;;;5014267;28;25064;-73
2023/04/09 00:04:26;;;;;;;43.92;23.85;;;;;;;;;;5012395;28;25154;-72
2023/04/09 00:06:52;;;;;;;47.42;25.77;;;;;;;;;;5014499;28;25055;-75
2023/04/09 00:09:19;;;;;;;47.60;26.17;;;;;;;;;;5015989;28;25056;-75
2023/04/09 00:11:45;;;;;;;52.85;26.38;;;;;;;;;;5009317;28;25061;-75
2023/04/09 00:14:11;;;;;;;49.72;26.05;;;;;;;;;;5011459;28;25144;-72
2023/04/09 00:16:37;;;;;;;49.97;25.88;;;;;;;;;;5011054;28;25072;-73
2023/04/09 00:19:03;;;;;;;48.00;26.35;;;;;;;;;;5008572;28;25065;-74
2023/04/09 00:21:29;;;;;;;49.42;25.92;;;;;;;;;;5009060;28;25089;-72
2023/04/09 00:23:55;;;;;;;46.60;24.55;;;;;;;;;;5009307;28;25149;-73
2023/04/09 00:26:21;;;;;;;46.30;25.67;;;;;;;;;;5004327;28;25143;-73
2023/04/09 00:28:47;;;;;;;47.10;24.92;;;;;;;;;;5013489;28;25071;-77
2023/04/09 00:31:12;;;;;;;47.22;24.80;;;10.10;99.90;;;;;;5009834;28;25084;-73
2023/04/09 00:33:38;;;;;;;50.08;23.98;;;;;;;;;;5009026;28;25075;-72
2023/04/09 00:36:04;;;;;;;46.60;23.10;;;;;;;;;;5012776;28;25079;-73
2023/04/09 00:38:30;;;;;;;45.97;24.23;;;10.00;99.90;;;;;;5010335;28;25146;-73
2023/04/09 00:40:56;;;;;;;45.90;23.02;;;;;;;;;;5011005;28;25058;-72
2023/04/09 00:43:22;;;;;;;46.03;23.88;;;;;;;;;;4988772;28;25079;-74
2023/04/09 00:45:48;;;;;;;52.45;24.48;;;;;;;;;;5013973;28;25072;-72
2023/04/09 00:48:15;;;;;;;48.20;23.48;;;;;;;;;;5010229;28;25111;-71
2023/04/09 00:50:41;;;;;;;44.38;23.38;;;;;;;;;;5010442;28;25129;-72
2023/04/09 00:53:08;;;;;;;43.80;22.77;;;10.10;99.90;;;;;;5010055;28;25054;-72
2023/04/09 00:55:35;;;;;;;41.55;22.63;;;;;;;;;;5013415;28;25071;-73
2023/04/09 00:58:01;;;;;;;41.17;21.08;;;;;;;;;;5008065;28;25061;-76
2023/04/09 01:00:27;;;;;;;43.55;23.98;;;;;;;;;;5003211;28;25095;-73
2023/04/09 01:02:56;;;;;;;39.40;22.02;;;;;;;;;;5002814;28;25147;-72
2023/04/09 01:05:22;;;;;;;40.22;22.77;;;;;;;;;;5004691;28;25148;-70
2023/04/09 01:08:01;;;;;;;42.05;22.83;;;;;;;;;;5006693;28;25055;-72
2023/04/09 01:10:39;;;;;;;45.90;23.33;;;;;;;;;;4994259;28;25070;-74
2023/04/09 01:13:13;;;;;;;41.72;21.77;;;;;;;;;;5005862;28;25065;-72
2023/04/09 01:15:47;;;;;;;37.45;21.98;;;10.40;99.90;;;;;;5005160;28;25060;-74
2023/04/09 01:18:22;;;;;;;47.85;23.38;;;;;;;;;;5005246;28;25171;-70
2023/04/09 01:20:54;;;;;;;43.25;22.30;;;;;;;;;;5000776;28;25058;-74
2023/04/09 01:23:24;;;;;;;40.63;23.15;;;;;;;;;;5011424;28;25046;-72
2023/04/09 01:25:59;;;;;;;47.58;23.80;;;;;;;;;;5005925;28;25100;-73
2023/04/09 01:28:46;;;;;;;43.00;22.38;;;;;;;;;;5015465;28;25098;-73
2023/04/09 01:31:17;;;;;;;43.05;23.67;;;;;;;;;;5012955;28;25100;-73
2023/04/09 01:33:44;;;;;;;40.60;21.92;;;;;;;;;;5009875;28;25113;-73
2023/04/09 01:36:10;;;;;;;40.22;23.65;;;;;;;;;;4988098;28;25123;-74
2023/04/09 01:38:37;;;;;;;47.08;24.08;;;;;;;;;;4998701;28;25059;-73
2023/04/09 01:41:04;;;;;;;47.40;24.15;;;;;;;;;;5009367;28;25061;-73
2023/04/09 01:43:30;;;;;;;40.67;23.90;;;;;;;;;;4980030;28;25063;-73
2023/04/09 01:45:56;;;;;;;44.65;23.67;;;;;;;;;;5008997;28;25076;-72
2023/04/09 01:48:23;;;;;;;41.97;22.92;;;;;;;;;;5006020;28;25077;-72
2023/04/09 01:50:49;;;;;;;43.80;24.63;;;;;;;;;;5000780;28;25095;-73
2023/04/09 01:53:15;;;;;;;40.05;23.05;;;;;;;;;;5000058;28;25093;-73
2023/04/09 01:55:41;;;;;;;44.58;24.88;;;;;;;;;;5002853;28;25074;-72
2023/04/09 01:58:07;;;;;;;44.15;24.45;;;;;;;;;;5004590;28;25087;-73
2023/04/09 02:00:38;;;;;;;43.97;24.98;;;;;;;;;;5006995;28;25129;-72
2023/04/09 02:03:07;;;;;;;42.78;23.60;;;;;;;;;;5008140;28;25090;-73
2023/04/09 02:05:37;;;;;;;43.13;25.27;;;;;;;;;;5011860;28;25129;-73
2023/04/09 02:08:03;;;;;;;46.25;25.05;;;;;;;;;;5004056;28;25079;-73
2023/04/09 02:10:31;;;;;;;43.65;22.92;;;;;;;;;;5000585;28;25080;-73
2023/04/09 02:12:57;;;;;;;43.95;24.42;;;;;;;;;;5003697;28;25068;-73
2023/04/09 02:15:24;;;;;;;46.25;23.85;;;;;;;;;;5004763;28;25063;-73
2023/04/09 02:17:49;;;;;;;44.67;23.77;;;;;;;;;;5004120;28;25119;-74
2023/04/09 02:20:16;;;;;;;40.55;23.38;;;;;;;;;;5004112;28;25063;-73
2023/04/09 02:22:43;;;;;;;41.88;23.83;;;;;;;;;;5005585;28;25085;-72
2023/04/09 02:25:09;;;;;;;40.17;23.30;;;;;;;;;;5006972;28;25071;-72
2023/04/09 02:27:35;;;;;;;40.83;23.77;;;;;;;;;;4989702;28;25065;-73
2023/04/09 02:30:01;;;;;;;35.50;21.70;;;;;;;;;;5017115;28;25055;-73
2023/04/09 02:32:27;;;;;;;41.38;22.92;;;;;;;;;;5004175;28;25079;-74
2023/04/09 02:34:53;;;;;;;40.30;22.25;;;;;;;;;;4982689;28;25124;-74
2023/04/09 02:37:19;;;;;;;41.63;22.58;;;;;;;;;;5002536;28;25066;-73
2023/04/09 02:39:44;;;;;;;41.50;23.00;;;;;;;;;;5010319;28;25075;-73
2023/04/09 02:42:10;;;;;;;43.20;23.55;;;;;;;;;;5012883;28;25071;-74
2023/04/09 02:44:36;;;;;;;43.97;23.67;;;;;;;;;;4997373;28;25126;-74
2023/04/09 02:47:02;;;;;;;38.88;23.25;;;;;;;;;;5013467;28;25100;-71
2023/04/09 02:49:28;;;;;;;39.78;23.55;;;;;;;;;;5012101;28;25142;-72
2023/04/09 02:51:54;;;;;;;40.90;22.98;;;;;;;;;;5014681;28;25074;-73
2023/04/09 02:54:20;;;;;;;38.00;22.38;;;;;;;;;;5016410;28;25088;-74
2023/04/09 02:56:46;;;;;;;40.90;22.63;;;;;;;;;;5015916;28;25082;-73
2023/04/09 02:59:12;;;;;;;34.30;21.25;;;;;;;;;;4990097;28;25078;-74
2023/04/09 03:01:38;;;;;;;39.40;21.90;;;;;;;;;;5011576;28;25077;-73
2023/04/09 03:04:04;;;;;;;38.55;21.33;;;;;;;;;;5019723;28;25074;-72
2023/04/09 03:06:30;;;;;;;39.38;21.70;;;;;;;;;;5022449;28;25063;-74
2023/04/09 03:08:56;;;;;;;41.13;23.88;;;;;;;;;;5014926;28;25059;-74
2023/04/09 03:11:22;;;;;;;43.05;24.30;;;;;;;;;;5016493;28;25056;-76
2023/04/09 03:13:48;;;;;;;38.25;22.55;;;;;;;;;;5018973;28;25102;-75
2023/04/09 03:16:14;;;;;;;38.85;21.38;;;;;;;;;;5031370;28;25067;-74
2023/04/09 03:18:40;;;;;;;38.13;21.27;;;;;;;;;;5019619;28;25066;-75
2023/04/09 03:21:06;;;;;;;39.45;22.60;;;;;;;;;;5020537;28;25096;-74
2023/04/09 03:23:33;;;;;;;36.03;21.15;;;;;;;;;;5000271;28;25067;-74
2023/04/09 03:26:06;;;;;;;41.17;22.38;;;;;;;;;;5008356;28;25151;-72
2023/04/09 03:28:32;;;;;;;38.28;22.65;;;;;;;;;;5006280;28;25075;-74
2023/04/09 03:30:58;;;;;;;36.15;22.33;;;;;;;;;;4990487;28;24698;-73
2023/04/09 03:33:24;;;;;;;44.65;22.35;;;;;;;;;;5014071;28;25103;-73
2023/04/09 03:35:50;;;;;;;37.88;20.88;;;10.50;99.90;;;;;;5003055;28;25085;-73
2023/04/09 03:38:16;;;;;;;42.70;24.02;;;;;;;;;;5002324;28;25072;-73
2023/04/09 03:40:42;;;;;;;40.40;22.70;;;;;;;;;;5002607;28;25076;-74
2023/04/09 03:43:08;;;;;;;39.40;22.55;;;;;;;;;;5003589;28;25076;-74
2023/04/09 03:45:34;;;;;;;38.72;21.83;;;;;;;;;;5000075;28;25090;-74
2023/04/09 03:48:00;;;;;;;43.28;23.45;;;;;;;;;;4999019;28;25096;-73
2023/04/09 03:50:26;;;;;;;40.88;22.90;;;;;;;;;;5006100;28;25086;-73
2023/04/09 03:52:52;;;;;;;45.40;22.67;;;;;;;;;;5009502;28;25090;-71
2023/04/09 03:55:18;;;;;;;42.25;22.88;;;;;;;;;;5002163;28;25062;-74
2023/04/09 03:57:44;;;;;;;41.10;22.98;;;;;;;;;;4997629;28;25057;-74
2023/04/09 04:00:10;;;;;;;41.17;23.02;;;;;;;;;;5004648;28;25060;-73
2023/04/09 04:02:36;;;;;;;46.72;24.15;;;;;;;;;;4998694;28;25067;-74
2023/04/09 04:05:02;;;;;;;48.17;24.17;;;;;;;;;;4989286;28;25053;-72
2023/04/09 04:07:28;;;;;;;39.28;23.23;;;;;;;;;;5005542;28;25135;-72
2023/04/09 04:09:54;;;;;;;43.78;23.77;;;;;;;;;;5007874;28;25080;-73
2023/04/09 04:12:20;;;;;;;44.85;24.40;;;;;;;;;;4993552;28;25071;-75
2023/04/09 04:14:46;;;;;;;51.75;25.67;;;;;;;;;;4989799;28;25130;-71
2023/04/09 04:17:12;;;;;;;42.65;24.33;;;;;;;;;;4982056;28;26200;-74
2023/04/09 04:19:38;;;;;;;44.63;25.05;;;;;;;;;;4999600;28;25151;-74
2023/04/09 04:22:04;;;;;;;46.83;24.50;;;;;;;;;;5000699;28;25082;-73
2023/04/09 04:24:30;;;;;;;47.10;24.13;;;10.50;99.90;;;;;;5004739;28;25094;-72
2023/04/09 04:26:55;;;;;;;46.60;25.13;;;;;;;;;;5001177;28;25072;-73
2023/04/09 04:29:22;;;;;;;47.85;24.60;;;;;;;;;;5000396;28;25068;-74
2023/04/09 04:31:48;;;;;;;50.75;25.73;;;;;;;;;;4995202;28;25065;-75
2023/04/09 04:34:14;;;;;;;46.05;24.38;;;;;;;;;;5000851;28;25084;-73
2023/04/09 04:36:40;;;;;;;51.55;26.45;;;;;;;;;;5000766;28;25095;-72
2023/04/09 04:39:06;;;;;;;45.03;24.38;;;;;;;;;;5007575;28;25088;-72
2023/04/09 04:41:31;;;;;;;43.53;24.15;;;;;;;;;;5001972;28;25053;-71
2023/04/09 04:43:57;;;;;;;44.63;23.85;;;;;;;;;;4989823;28;25169;-74
2023/04/09 04:46:23;;;;;;;47.47;24.60;;;;;;;;;;5006083;28;25074;-70
2023/04/09 04:48:49;;;;;;;47.05;23.63;;;;;;;;;;4999924;28;25057;-72
2023/04/09 04:51:15;;;;;;;44.38;22.98;;;;;;;;;;5019060;28;25082;-74
2023/04/09 04:53:41;;;;;;;51.97;25.65;;;;;;;;;;5008446;28;25110;-73
2023/04/09 04:56:12;;;;;;;41.08;22.40;;;;;;;;;;4991087;28;25120;-74
2023/04/09 04:58:38;;;;;;;43.10;22.52;;;;;;;;;;4999370;28;25077;-72
2023/04/09 05:01:04;;;;;;;45.63;23.42;;;;;;;;;;5007247;28;25082;-73
2023/04/09 05:03:29;;;;;;;46.97;24.40;;;10.50;99.90;;;;;;5004891;28;25056;-74
2023/04/09 05:05:55;;;;;;;48.33;23.92;;;;;;;;;;5003570;28;25144;-75
2023/04/09 05:08:21;;;;;;;50.30;24.20;;;;;;;;;;5008343;28;25127;-73
2023/04/09 05:10:47;;;;;;;47.33;24.30;;;;;;;;;;5006857;28;25147;-73
2023/04/09 05:13:13;;;;;;;44.40;22.88;;;;;;;;;;5000580;28;25053;-74
2023/04/09 05:15:40;;;;;;;41.00;21.63;;;;;;;;;;4998562;28;25131;-73
2023/04/09 05:18:06;;;;;;;48.25;22.55;;;;;;;;;;5002615;28;25095;-74
2023/04/09 05:20:32;;;;;;;46.72;23.25;;;;;;;;;;5003883;28;25062;-73
2023/04/09 05:22:58;;;;;;;45.67;23.70;;;;;;;;;;5012845;28;25060;-73
2023/04/09 05:25:24;;;;;;;46.67;24.40;;;;;;;;;;5013314;28;25081;-73
2023/04/09 05:27:50;;;;;;;46.20;22.63;;;;;;;;;;5014562;28;25054;-73
2023/04/09 05:30:16;;;;;;;49.17;24.80;;;;;;;;;;5011489;28;25079;-73
2023/04/09 05:32:42;;;;;;;48.35;23.80;;;;;;;;;;5009653;28;25102;-74
2023/04/09 05:35:09;;;;;;;47.85;24.38;;;;;;;;;;5005063;28;25082;-73
2023/04/09 05:37:34;;;;;;;50.33;23.98;;;;;;;;;;4990938;28;25066;-75
2023/04/09 05:40:01;;;;;;;44.30;22.58;;;;;;;;;;5007022;28;25062;-73
2023/04/09 05:42:26;;;;;;;43.63;23.10;;;;;;;;;;5008312;28;25149;-73
2023/04/09 05:44:52;;;;;;;48.55;24.00;;;;;;;;;;5004444;28;25069;-74
2023/04/09 05:47:18;;;;;;;49.67;25.50;;;;;;;;;;5007077;28;25087;-73
2023/04/09 05:49:44;;;;;;;53.08;23.55;;;;;;;;;;5002579;28;25052;-74
2023/04/09 05:52:10;;;;;;;49.63;25.00;;;;;;;;;;5001205;28;25094;-72
2023/04/09 05:54:36;;;;;;;44.17;23.48;;;;;;;;;;5008278;28;25117;-75
2023/04/09 05:57:02;;;;;;;53.72;24.70;;;;;;;;;;5011231;28;25071;-74
2023/04/09 05:59:28;;;;;;;51.30;25.58;;;;;;;;;;5011645;28;25088;-76
2023/04/09 06:01:54;;;;;;;56.30;25.77;;;;;;;;;;5011402;28;25079;-73
2023/04/09 06:04:20;;;;;;;53.45;25.50;;;;;;;;;;5006600;28;25060;-72
2023/04/09 06:06:47;;;;;;;54.42;25.77;;;;;;;;;;5009747;28;25069;-74
2023/04/09 06:09:12;;;;;;;50.15;23.75;;;;;;;;;;5018061;28;25097;-73
2023/04/09 06:11:38;;;;;;;53.25;24.08;;;;;;;;;;5013708;28;25087;-74
2023/04/09 06:14:04;;;;;;;61.58;27.50;;;;;;;;;;5005903;28;25099;-72
2023/04/09 06:16:30;;;;;;;55.83;27.30;;;;;;;;;;5004687;28;25060;-76
2023/04/09 06:18:56;;;;;;;53.15;25.77;;;;;;;;;;5004050;28;25133;-74
2023/04/09 06:21:22;;;;;;;58.35;27.42;;;;;;;;;;5003939;28;25062;-75
2023/04/09 06:23:48;;;;;;;58.45;28.40;;;;;;;;;;4990737;28;25058;-74
2023/04/09 06:26:14;;;;;;;60.20;27.30;;;;;;;;;;4992971;28;25140;-73
2023/04/09 06:28:41;;;;;;;57.85;26.58;;;;;;;;;;5007382;28;25064;-73
2023/04/09 06:31:07;;;;;;;56.67;27.23;;;;;;;;;;5002461;28;25061;-75
2023/04/09 06:33:33;;;;;;;55.63;27.85;;;;;;;;;;5001364;28;25144;-72
2023/04/09 06:35:59;;;;;;;57.60;27.33;;;;;;;;;;5014125;28;25108;-72
2023/04/09 06:38:25;;;;;;;64.00;27.73;;;;;;;;;;4982700;28;25060;-72
2023/04/09 06:40:51;;;;;;;60.78;27.60;;;;;;;;;;5003728;28;25065;-74
2023/04/09 06:43:17;;;;;;;58.60;26.77;;;;;;;;;;5006770;28;25053;-73
2023/04/09 06:45:43;;;;;;;65.50;26.85;;;;;;;;;;5001812;28;25053;-72
2023/04/09 06:48:09;;;;;;;63.35;28.65;;;;;;;;;;5000439;28;25060;-74
2023/04/09 06:50:35;;;;;;;62.03;28.48;;;;;;;;;;5001139;28;25098;-73
2023/04/09 06:53:01;;;;;;;61.92;28.25;;;;;;;;;;5001896;28;25091;-73
2023/04/09 06:55:28;;;;;;;64.55;29.40;;;;;;;;;;5000589;28;25105;-72
2023/04/09 06:57:54;;;;;;;58.30;27.90;;;;;;;;;;5007225;28;25063;-72
2023/04/09 07:00:21;;;;;;;59.03;28.90;;;;;;;;;;5008862;28;25107;-72
2023/04/09 07:02:47;;;;;;;60.53;28.02;;;10.80;99.90;;;;;;5007438;28;25083;-73
2023/04/09 07:05:13;;;;;;;70.40;31.80;;;;;;;;;;5007356;28;25078;-73
2023/04/09 07:07:39;;;;;;;75.40;33.67;;;;;;;;;;5004365;28;25055;-71
2023/04/09 07:10:05;;;;;;;73.28;32.83;;;;;;;;;;5013822;28;25134;-74
2023/04/09 07:12:33;;;;;;;72.78;31.77;;;10.40;99.90;;;;;;5005935;28;25133;-72
2023/04/09 07:15:03;;;;;;;77.38;32.55;;;;;;;;;;5006973;28;25064;-73
2023/04/09 07:17:30;;;;;;;77.10;32.97;;;;;;;;;;5008597;28;25059;-73
2023/04/09 07:19:56;;;;;;;83.88;33.58;;;;;;;;;;5005386;28;25077;-74
2023/04/09 07:22:22;;;;;;;75.68;33.33;;;;;;;;;;5010494;28;25145;-76
2023/04/09 07:24:52;;;;;;;72.53;33.67;;;;;;;;;;5005493;28;25059;-75
2023/04/09 07:27:22;;;;;;;75.40;32.83;;;;;;;;;;5005354;28;25086;-73
2023/04/09 07:29:48;;;;;;;84.88;34.38;;;;;;;;;;5011401;28;25061;-72
2023/04/09 07:32:15;;;;;;;71.55;32.10;;;;;;;;;;5005503;28;25079;-75
2023/04/09 07:34:41;;;;;;;75.70;31.63;;;;;;;;;;5004030;28;25076;-73
2023/04/09 07:37:07;;;;;;;71.32;32.30;;;;;;;;;;5001504;28;25071;-73
2023/04/09 07:39:33;;;;;;;77.55;33.03;;;;;;;;;;4995445;28;25093;-74
2023/04/09 07:42:02;;;;;;;78.55;33.38;;;;;;;;;;4999603;28;25067;-74
2023/04/09 07:44:28;;;;;;;81.60;35.60;;;;;;;;;;4997853;28;25151;-73
2023/04/09 07:46:54;;;;;;;79.93;33.33;;;;;;;;;;5002870;28;25118;-73
2023/04/09 07:49:20;;;;;;;83.85;34.97;;;;;;;;;;5006023;28;25067;-73
2023/04/09 07:51:47;;;;;;;75.32;32.83;;;;;;;;;;4983014;28;25110;-73
2023/04/09 07:54:12;;;;;;;78.78;34.97;;;;;;;;;;5002233;28;25063;-71
2023/04/09 07:56:39;;;;;;;84.25;35.67;;;;;;;;;;5004879;28;25115;-73
2023/04/09 07:59:05;;;;;;;86.80;35.80;;;;;;;;;;5008314;28;25063;-73
2023/04/09 08:01:31;;;;;;;90.15;36.88;;;;;;;;;;5004311;28;25084;-75
2023/04/09 08:03:57;;;;;;;84.32;35.58;;;;;;;;;;5002139;28;25078;-73
2023/04/09 08:06:23;;;;;;;83.85;35.63;;;;;;;;;;4999323;28;25108;-73
2023/04/09 08:08:49;;;;;;;84.18;38.15;;;;;;;;;;5006535;28;25166;-73
2023/04/09 08:11:15;;;;;;;87.97;38.00;;;;;;;;;;4999928;28;25121;-72
2023/04/09 08:13:41;;;;;;;85.35;36.70;;;;;;;;;;5001721;28;25114;-74
2023/04/09 08:16:07;;;;;;;85.55;36.33;;;;;;;;;;5007624;28;25116;-74
2023/04/09 08:18:33;;;;;;;89.70;37.42;;;;;;;;;;4995085;28;25168;-74
2023/04/09 08:21:03;;;;;;;84.32;35.38;;;;;;;;;;4997457;28;25062;-73
2023/04/09 08:23:29;;;;;;;76.82;33.42;;;;;;;;;;5003018;28;25054;-74
2023/04/09 08:25:55;;;;;;;80.65;35.88;;;;;;;;;;5003245;28;25079;-73
2023/04/09 08:28:22;;;;;;;89.07;36.85;;;;;;;;;;5002595;28;25107;-71
2023/04/09 08:30:48;;;;;;;83.32;37.13;;;;;;;;;;5000477;28;25076;-70
2023/04/09 08:33:15;;;;;;;81.68;38.00;;;;;;;;;;5004067;28;25119;-73
2023/04/09 08:35:41;;;;;;;83.28;37.50;;;;;;;;;;4997679;28;25074;-73
2023/04/09 08:38:07;;;;;;;78.47;36.15;;;;;;;;;;5004576;28;25078;-74
2023/04/09 08:40:36;;;;;;;82.53;35.47;;;;;;;;;;5009940;28;25066;-75
2023/04/09 08:43:04;;;;;;;84.38;37.33;;;;;;;;;;5007368;28;25071;-72
2023/04/09 08:45:30;;;;;;;79.32;36.78;;;;;;;;;;5005465;28;25083;-72
2023/04/09 08:47:58;;;;;;;75.10;34.53;;;;;;;;;;4996988;28;25083;-74
2023/04/09 08:50:25;;;;;;;60.00;29.23;;;;;;;;;;5008376;28;25171;-72
2023/04/09 08:52:51;;;;;;;60.63;28.98;;;;;;;;;;5013665;28;25089;-73
2023/04/09 08:55:17;;;;;;;51.58;26.55;;;;;;;;;;5004101;28;25100;-73
2023/04/09 08:57:43;;;;;;;56.22;26.88;;;;;;;;;;4987460;28;25065;-71
2023/04/09 09:00:09;;;;;;;54.55;25.50;;;;;;;;;;5002585;28;25088;-73
2023/04/09 09:02:35;;;;;;;49.85;24.33;;;;;;;;;;4996345;28;25064;-72
2023/04/09 09:05:01;;;;;;;47.40;25.48;;;;;;;;;;5007515;28;25077;-71
2023/04/09 09:07:31;;;;;;;50.80;26.60;;;;;;;;;;5003030;28;25078;-72
2023/04/09 09:10:03;;;;;;;50.55;25.55;;;;;;;;;;4995940;28;25067;-72
2023/04/09 09:12:33;;;;;;;52.40;26.45;;;;;;;;;;5003356;28;25100;-71
2023/04/09 09:14:59;;;;;;;55.45;24.52;;;;;;;;;;5005275;28;25069;-71
2023/04/09 09:17:25;;;;;;;53.15;26.65;;;;;;;;;;5004214;28;25069;-73
2023/04/09 09:19:51;;;;;;;50.65;25.25;;;;;;;;;;4995945;28;25133;-72
2023/04/09 09:22:17;;;;;;;58.28;27.27;;;;;;;;;;4995401;28;25069;-72
2023/04/09 09:24:50;;;;;;;51.08;25.90;;;;;;;;;;5002287;28;25064;-71
2023/04/09 09:27:38;;;;;;;62.42;27.10;;;;;;;;;;5000904;28;25078;-73
2023/04/09 09:30:04;;;;;;;56.72;27.10;;;;;;;;;;5002347;28;25053;-73
2023/04/09 09:32:31;;;;;;;55.50;26.63;;;12.10;99.90;;;;;;4986454;28;25140;-73
2023/04/09 09:34:59;;;;;;;55.85;27.10;;;;;;;;;;5002088;28;25092;-76
2023/04/09 09:37:26;;;;;;;53.10;25.25;;;;;;;;;;4993079;28;25063;-72
2023/04/09 09:39:52;;;;;;;59.35;28.58;;;;;;;;;;5001013;28;25077;-71
2023/04/09 09:42:18;;;;;;;56.47;26.92;;;;;;;;;;4994986;28;25059;-72
2023/04/09 09:44:44;;;;;;;56.63;28.27;;;;;;;;;;5000264;28;25105;-72
2023/04/09 09:47:15;;;;;;;49.63;26.48;;;;;;;;;;4999353;28;25107;-73
2023/04/09 09:49:41;;;;;;;55.00;28.38;;;;;;;;;;5000492;28;25052;-74
2023/04/09 09:52:09;;;;;;;53.03;25.88;;;;;;;;;;5000541;28;25082;-72
2023/04/09 09:54:41;;;;;;;55.35;26.40;;;;;;;;;;4998238;28;25062;-72
2023/04/09 09:57:07;;;;;;;51.38;26.63;;;;;;;;;;5003528;28;25076;-71
2023/04/09 09:59:37;;;;;;;56.75;28.17;;;;;;;;;;4983958;28;25072;-72
2023/04/09 10:02:04;;;;;;;53.00;28.25;;;;;;;;;;5003722;28;25050;-72
2023/04/09 10:04:34;;;;;;;57.05;28.92;;;;;;;;;;5000932;28;25065;-73
2023/04/09 10:07:02;;;;;;;57.03;29.70;;;;;;;;;;5011415;28;25113;-73
2023/04/09 10:09:28;;;;;;;53.30;27.90;;;;;;;;;;4975926;28;25141;-73
2023/04/09 10:11:54;;;;;;;52.10;27.67;;;;;;;;;;5006637;28;25081;-72
2023/04/09 10:14:21;;;;;;;52.03;26.27;;;;;;;;;;4980328;28;25073;-71
2023/04/09 10:16:47;;;;;;;56.53;28.90;;;;;;;;;;4995838;28;25063;-74
2023/04/09 10:19:13;;;;;;;53.13;28.90;;;;;;;;;;4995976;28;25067;-75
2023/04/09 10:21:42;;;;;;;53.28;28.73;;;;;;;;;;4985033;28;25074;-73
2023/04/09 10:24:09;;;;;;;49.53;27.00;;;;;;;;;;4999956;28;25073;-70
2023/04/09 10:26:35;;;;;;;46.85;26.63;;;;;;;;;;4999029;28;25064;-72
2023/04/09 10:29:12;;;;;;;47.70;26.92;;;;;;;;;;4987968;28;25069;-73
2023/04/09 10:31:50;;;;;;;50.25;27.75;;;;;;;;;;5005873;28;25096;-75
2023/04/09 10:34:17;;;;;;;53.90;26.23;;;;;;;;;;5002622;28;25051;-74
2023/04/09 10:36:44;;;;;;;51.03;26.90;;;;;;;;;;4997354;28;25073;-74
2023/04/09 10:39:13;;;;;;;48.97;26.80;;;;;;;;;;4976612;28;25062;-74
2023/04/09 10:41:40;;;;;;;42.45;25.08;;;;;;;;;;5004380;28;25066;-73
2023/04/09 10:44:06;;;;;;;47.90;26.52;;;;;;;;;;5001213;28;25090;-73
2023/04/09 10:46:35;;;;;;;54.50;27.25;;;;;;;;;;4980848;28;25059;-73
2023/04/09 10:49:18;;;;;;;50.65;26.90;;;;;;;;;;4997130;28;25075;-72
2023/04/09 10:52:03;;;;;;;48.13;25.30;;;;;;;;;;4995807;28;25151;-71
2023/04/09 10:54:32;;;;;;;50.53;25.77;;;;;;;;;;5001398;28;25062;-73
2023/04/09 10:57:07;;;;;;;45.33;26.45;;;;;;;;;;4996039;28;25164;-74
2023/04/09 10:59:34;;;;;;;47.25;23.88;;;;;;;;;;4989223;28;25146;-72
2023/04/09 11:02:00;;;;;;;45.83;24.25;;;;;;;;;;5005559;28;25070;-75
2023/04/09 11:04:34;;;;;;;42.72;23.60;;;;;;;;;;5008385;28;25003;-75
2023/04/09 11:07:00;;;;;;;46.80;24.38;;;;;;;;;;4995869;28;25076;-75
2023/04/09 11:09:26;;;;;;;44.17;25.33;;;;;;;;;;5006237;28;25059;-75
2023/04/09 11:11:53;;;;;;;39.88;23.23;;;;;;;;;;5010926;28;25127;-76
2023/04/09 11:14:20;;;;;;;44.13;23.45;;;;;;;;;;4993235;28;25055;-77
2023/04/09 11:16:49;;;;;;;43.65;24.17;;;;;;;;;;4999806;28;25103;-73
2023/04/09 11:19:15;;;;;;;41.55;23.70;;;;;;;;;;5004620;28;25053;-76
2023/04/09 11:21:45;;;;;;;43.47;24.98;;;;;;;;;;5000011;28;25134;-75
2023/04/09 11:24:11;;;;;;;41.53;23.77;;;;;;;;;;5005855;28;25043;-75
2023/04/09 11:26:37;;;;;;;44.55;23.45;;;;;;;;;;5002580;28;25082;-76
2023/04/09 11:29:08;;;;;;;40.53;22.98;;;;;;;;;;5007878;28;25077;-76
2023/04/09 11:31:34;;;;;;;41.72;23.08;;;;;;;;;;5001563;28;25044;-78
2023/04/09 11:34:00;;;;;;;42.53;23.60;;;;;;;;;;5000937;28;25135;-78
2023/04/09 11:36:26;;;;;;;39.05;22.02;;;;;;;;;;5002734;28;25077;-76
2023/04/09 11:38:54;;;;;;;36.05;21.00;;;;;;;;;;5004537;28;25057;-75
2023/04/09 11:41:32;;;;;;;32.10;17.58;;;;;;;;;;4995392;28;25146;-74
2023/04/09 11:43:58;;;;;;;35.80;20.15;;;;;;;;;;5007992;28;25057;-76
2023/04/09 11:46:25;;;;;;;33.03;20.02;;;;;;;;;;5007726;28;25060;-74
2023/04/09 11:48:51;;;;;;;35.72;20.00;;;17.40;99.90;;;;;;5006109;28;25094;-76
2023/04/09 11:51:17;;;;;;;33.88;21.25;;;;;;;;;;4999473;28;25061;-74
2023/04/09 11:53:44;;;;;;;32.45;20.75;;;;;;;;;;4999686;28;25161;-75
2023/04/09 11:56:10;;;;;;;34.40;21.45;;;;;;;;;;5011860;28;25059;-76
2023/04/09 11:58:36;;;;;;;33.38;21.95;;;;;;;;;;5002784;28;25057;-75
2023/04/09 12:01:02;;;;;;;38.00;20.60;;;;;;;;;;4999287;28;25105;-76
2023/04/09 12:03:29;;;;;;;35.00;21.80;;;;;;;;;;5006501;28;25088;-75
2023/04/09 12:05:55;;;;;;;33.75;20.10;;;;;;;;;;4980973;28;25110;-75
2023/04/09 12:08:24;;;;;;;33.22;20.08;;;;;;;;;;5005954;28;25053;-77
2023/04/09 12:10:51;;;;;;;33.00;19.83;;;;;;;;;;4993674;28;25063;-78
2023/04/09 12:13:17;;;;;;;35.38;19.33;;;;;;;;;;4999561;28;25077;-76
2023/04/09 12:15:43;;;;;;;33.90;19.88;;;;;;;;;;5006401;28;25117;-77
2023/04/09 12:18:11;;;;;;;33.70;18.88;;;;;;;;;;5003539;28;25067;-76
2023/04/09 12:20:38;;;;;;;33.05;19.20;;;;;;;;;;5000529;28;25102;-76
2023/04/09 12:23:05;;;;;;;30.75;18.13;;;;;;;;;;4999980;28;25077;-76
2023/04/09 12:25:32;;;;;;;27.60;16.63;;;;;;;;;;4996528;28;25064;-76
2023/04/09 12:27:58;;;;;;;30.80;18.02;;;;;;;;;;4995044;28;25064;-74
2023/04/09 12:30:24;;;;;;;27.60;15.68;;;;;;;;;;4996109;28;25152;-73
2023/04/09 12:32:51;;;;;;;26.25;16.92;;;;;;;;;;5003238;28;25092;-77
2023/04/09 12:35:17;;;;;;;27.52;17.35;;;;;;;;;;4996838;28;25063;-75
2023/04/09 12:37:43;;;;;;;24.98;16.27;;;17.30;99.90;;;;;;4988013;28;25060;-76
2023/04/09 12:40:09;;;;;;;26.77;15.60;;;;;;;;;;5002901;28;25116;-75
2023/04/09 12:42:35;;;;;;;27.65;17.33;;;;;;;;;;5002874;28;25058;-77
2023/04/09 12:45:01;;;;;;;26.67;16.15;;;17.30;99.90;;;;;;4998255;28;25141;-74
2023/04/09 12:47:27;;;;;;;28.27;17.08;;;;;;;;;;5002553;28;25088;-75
2023/04/09 12:49:54;;;;;;;24.35;15.73;;;;;;;;;;4988216;28;25053;-75
2023/04/09 12:52:21;;;;;;;24.73;15.05;;;;;;;;;;5006896;28;25107;-74
2023/04/09 12:54:47;;;;;;;25.23;15.80;;;;;;;;;;5005184;28;25076;-76
2023/04/09 12:57:13;;;;;;;22.30;14.07;;;;;;;;;;5007430;28;25069;-77
2023/04/09 12:59:39;;;;;;;25.25;15.25;;;;;;;;;;5005228;28;25115;-76
2023/04/09 13:02:06;;;;;;;21.00;14.13;;;;;;;;;;4996596;28;25103;-76
2023/04/09 13:04:32;;;;;;;24.08;15.82;;;;;;;;;;4980343;28;25051;-76
2023/04/09 13:06:58;;;;;;;25.73;15.73;;;;;;;;;;4999975;28;25100;-77
2023/04/09 13:09:24;;;;;;;25.98;16.00;;;;;;;;;;4996548;28;25082;-76
2023/04/09 13:11:50;;;;;;;25.00;14.57;;;;;;;;;;4991880;28;25061;-75
2023/04/09 13:14:16;;;;;;;26.23;15.57;;;;;;;;;;5004461;28;25074;-75
2023/04/09 13:16:42;;;;;;;26.95;15.38;;;;;;;;;;4994745;28;25055;-76
2023/04/09 13:19:09;;;;;;;23.58;14.93;;;;;;;;;;4999226;28;25051;-75
2023/04/09 13:21:35;;;;;;;24.13;14.80;;;;;;;;;;4997343;28;25160;-77
2023/04/09 13:24:02;;;;;;;24.75;13.90;;;;;;;;;;5002228;28;25108;-77
2023/04/09 13:26:28;;;;;;;21.33;12.50;;;;;;;;;;4977134;28;25090;-76
2023/04/09 13:28:54;;;;;;;25.50;15.32;;;;;;;;;;5000396;28;25060;-76
2023/04/09 13:31:20;;;;;;;21.75;14.25;;;;;;;;;;4984096;28;25072;-75
2023/04/09 13:33:46;;;;;;;18.85;11.95;;;;;;;;;;5006597;28;25060;-76
2023/04/09 13:36:12;;;;;;;20.17;13.10;;;;;;;;;;5018941;28;25060;-75
2023/04/09 13:38:38;;;;;;;20.48;12.07;;;;;;;;;;5018577;28;25096;-75
2023/04/09 13:41:05;;;;;;;26.92;14.40;;;;;;;;;;4992697;28;25100;-76
2023/04/09 13:43:31;;;;;;;21.90;13.18;;;;;;;;;;5003591;28;25079;-75
2023/04/09 13:45:57;;;;;;;22.17;13.77;;;;;;;;;;4997432;28;25152;-74
2023/04/09 13:48:23;;;;;;;20.05;12.00;;;;;;;;;;4974393;28;25058;-78
2023/04/09 13:50:49;;;;;;;20.02;12.57;;;;;;;;;;4997456;28;25085;-78
2023/04/09 13:53:15;;;;;;;18.35;11.95;;;;;;;;;;4993614;28;25072;-77
2023/04/09 13:55:42;;;;;;;21.35;13.85;;;;;;;;;;5006207;28;25109;-76
2023/04/09 13:58:08;;;;;;;17.73;11.43;;;;;;;;;;4998979;28;25065;-74
2023/04/09 14:00:35;;;;;;;20.50;10.50;;;;;;;;;;4996367;28;25069;-76
2023/04/09 14:03:02;;;;;;;19.85;12.50;;;;;;;;;;4984431;28;25086;-76
2023/04/09 14:05:28;;;;;;;15.43;10.70;;;;;;;;;;4997736;28;25062;-76
2023/04/09 14:07:55;;;;;;;18.52;11.48;;;;;;;;;;5002445;28;25081;-77
2023/04/09 14:10:21;;;;;;;16.23;10.73;;;;;;;;;;4996890;28;25052;-75